Time;durP1;ratioP1;P1;durP2;ratioP2;P2;SDS_P1;SDS_P2;PMS_P1;PMS_P2;Temp;Humidity;BMP_temperature;BMP_pressure;BME280_temperature;BME280_humidity;BME280_pressure;Samples;Min_cycle;Max_cycle;Signal;HPM_P1;HPM_P2
2021/05/27 00:00:29;;;;;;;2.95;2.05;;;;;;;19.25;49.44;99468.72;4955103;28;20022;-78
2021/05/27 00:02:55;;;;;;;7.82;2.30;;;;;;;19.13;49.72;99475.50;4953822;28;20070;-79
2021/05/27 00:05:21;;;;;;;3.72;2.03;;;;;;;19.22;49.53;99470.31;4952366;28;20035;-79
2021/05/27 00:07:47;;;;;;;3.80;2.50;;;;;;;19.28;49.42;99464.28;4953708;28;20059;-79
2021/05/27 00:10:17;;;;;;;2.88;2.28;;;;;;;19.38;49.48;99465.56;4953415;28;20061;-78
2021/05/27 00:12:43;;;;;;;3.08;2.05;;;;;;;19.33;49.03;99472.44;4952815;28;20042;-79
2021/05/27 00:15:09;;;;;;;2.63;2.05;;;;;;;19.13;50.05;99460.53;4953363;28;20039;-78
2021/05/27 00:17:35;;;;;;;3.15;2.10;;;;;;;19.04;50.36;99449.53;4953779;28;20389;-79
2021/05/27 00:20:02;;;;;;;2.83;1.80;;;;;;;19.14;50.08;99450.84;4953678;28;20317;-79
2021/05/27 00:22:28;;;;;;;6.10;2.20;;;;;;;18.52;50.68;99447.44;4952235;28;20413;-79
2021/05/27 00:24:54;;;;;;;3.33;2.25;;;;;;;18.38;51.82;99445.28;4946056;28;20068;-79
2021/05/27 00:27:20;;;;;;;3.05;2.10;;;;;;;18.45;51.95;99445.38;4950676;28;20028;-79
2021/05/27 00:29:45;;;;;;;2.95;2.28;;;;;;;18.63;51.71;99439.88;4954521;28;20642;-80
2021/05/27 00:32:10;;;;;;;5.38;2.25;;;;;;;18.90;51.04;99439.69;4953669;28;20039;-79
2021/05/27 00:34:36;;;;;;;2.40;2.20;;;;;;;18.97;51.15;99435.28;4954320;28;20035;-79
2021/05/27 00:37:02;;;;;;;2.15;1.92;;;;;;;18.99;51.33;99435.72;4954471;28;20039;-80
2021/05/27 00:39:27;;;;;;;4.00;2.63;;;;;;;18.69;52.19;99429.00;4954357;28;20035;-81
2021/05/27 00:41:53;;;;;;;2.33;2.00;;;;;;;18.65;52.37;99422.50;4952379;28;20035;-80
2021/05/27 00:44:23;;;;;;;3.53;2.08;;;;;;;18.79;52.26;99433.13;4952575;28;20035;-79
2021/05/27 00:46:49;;;;;;;4.72;2.67;;;;;;;19.07;51.21;99426.09;4952369;28;20019;-81
2021/05/27 00:49:15;;;;;;;4.45;2.22;;;;;;;19.10;50.92;99421.63;4951199;28;20091;-81
2021/05/27 00:51:43;;;;;;;2.30;2.10;;;;;;;18.96;51.67;99419.50;4953913;28;20440;-81
2021/05/27 00:54:09;;;;;;;2.20;2.00;;;;;;;19.06;50.87;99416.75;4945767;28;20043;-80
2021/05/27 00:56:35;;;;;;;7.75;3.15;;;;;;;19.19;50.46;99417.25;4952568;28;20027;-80
2021/05/27 00:59:01;;;;;;;2.30;2.08;;;;;;;18.81;51.16;99408.03;4949544;28;20042;-80
2021/05/27 01:01:27;;;;;;;3.72;2.17;;;;;;;18.75;51.48;99401.13;4952542;28;20035;-80
2021/05/27 01:03:52;;;;;;;2.10;2.00;;;;;;;18.73;51.12;99400.69;4951888;28;20480;-80
2021/05/27 01:06:18;;;;;;;3.67;2.25;;;;;;;18.76;51.53;99397.06;4953895;28;20035;-80
2021/05/27 01:08:43;;;;;;;3.47;2.60;;;;;;;18.79;51.14;99394.28;4951466;28;20062;-79
2021/05/27 01:11:09;;;;;;;3.90;2.22;;;;;;;18.80;51.07;99397.91;4953731;28;20066;-80
2021/05/27 01:13:35;;;;;;;5.35;3.10;;;;;;;18.86;50.59;99392.69;4940278;28;20067;-80
2021/05/27 01:16:00;;;;;;;4.90;2.42;;;;;;;18.63;51.08;99383.22;4953497;28;20023;-79
2021/05/27 01:18:27;;;;;;;3.08;2.28;;;;;;;18.73;50.74;99389.38;4952862;28;20035;-79
2021/05/27 01:20:55;;;;;;;5.78;2.55;;;;;;;18.40;51.53;99391.91;4953654;28;20027;-80
2021/05/27 01:23:22;;;;;;;3.58;2.50;;;;;;;18.38;52.15;99386.66;4952528;28;20039;-81
2021/05/27 01:25:50;;;;;;;2.60;2.40;;;;;;;18.60;51.60;99386.03;4952900;28;20023;-79
2021/05/27 01:28:16;;;;;;;4.70;2.67;;;;;;;18.62;51.65;99380.78;4953379;28;20035;-78
2021/05/27 01:30:43;;;;;;;3.75;2.53;;;;;;;18.51;51.96;99383.53;4951617;28;20390;-80
2021/05/27 01:33:10;;;;;;;5.05;2.67;;;;;;;18.08;53.49;99393.22;4945689;28;20039;-79
2021/05/27 01:35:36;;;;;;;5.43;3.25;;;;;;;17.96;53.82;99376.50;4952424;28;20031;-80
2021/05/27 01:38:14;;;;;;;10.13;3.63;;;;;;;18.26;53.02;99395.44;4951930;28;20516;-80
2021/05/27 01:40:41;;;;;;;3.80;2.90;;;;;;;18.41;52.68;99401.22;4951873;28;20067;-80
2021/05/27 01:43:07;;;;;;;3.92;3.15;;;;;;;18.48;52.16;99402.09;4946878;28;20035;-80
2021/05/27 01:45:34;;;;;;;5.50;3.22;;;;;;;18.35;53.19;99412.09;4951917;28;20035;-80
2021/05/27 01:47:59;;;;;;;3.00;2.72;;;;;;;18.24;52.99;99409.19;4952853;28;20039;-80
2021/05/27 01:50:26;;;;;;;5.78;3.42;;;;;;;18.02;53.61;99414.56;4950684;28;20464;-79
2021/05/27 01:52:56;;;;;;;3.28;2.92;;;;;;;17.83;54.51;99412.75;4945760;28;20035;-80
2021/05/27 01:55:22;;;;;;;4.28;3.10;;;;;;;17.51;55.42;99402.66;4953128;28;20134;-80
2021/05/27 01:57:47;;;;;;;7.70;3.35;;;;;;;17.27;56.24;99395.47;4952689;28;20541;-80
2021/05/27 02:00:13;;;;;;;3.40;3.10;;;;;;;17.30;56.36;99393.88;4952753;28;20489;-80
2021/05/27 02:02:39;;;;;;;3.83;3.53;;;;;;;17.75;54.60;99391.22;4950330;28;20027;-80
2021/05/27 02:05:05;;;;;;;3.50;3.20;;;;;;;18.06;53.54;99392.81;4952583;28;20445;-80
2021/05/27 02:07:30;;;;;;;10.88;3.75;;;;;;;17.95;53.88;99409.66;4952815;28;20497;-80
2021/05/27 02:09:56;;;;;;;9.60;3.95;;;;;;;17.91;54.45;99402.31;4945936;28;20095;-79
2021/05/27 02:12:23;;;;;;;3.63;3.33;;;;;;;17.78;54.72;99402.56;4950989;28;20058;-80
2021/05/27 02:14:48;;;;;;;5.07;4.03;;;;;;;17.47;55.53;99396.13;4953205;28;20485;-78
2021/05/27 02:17:14;;;;;;;5.38;3.85;;;;;;;17.40;55.90;99402.50;4941374;28;20030;-80
2021/05/27 02:19:39;;;;;;;4.50;3.85;;;;;;;17.35;56.11;99396.38;4950409;28;20039;-80
2021/05/27 02:22:05;;;;;;;7.63;4.38;;;;;;;17.57;55.55;99405.13;4949733;28;20038;-78
2021/05/27 02:24:31;;;;;;;7.13;4.95;;;;;;;17.74;54.91;99395.25;4948323;28;20030;-79
2021/05/27 02:26:56;;;;;;;5.60;4.00;;;;;;;17.87;54.64;99396.63;4951050;28;20421;-79
2021/05/27 02:29:22;;;;;;;4.75;4.28;;;;;;;17.53;56.12;99405.09;4951971;28;20482;-80
2021/05/27 02:31:47;;;;;;;7.60;4.65;;;;;;;17.63;55.55;99400.78;4967216;28;20042;-79
2021/05/27 02:34:13;;;;;;;6.00;4.40;;;;;;;17.72;55.28;99404.09;4951943;28;20106;-80
2021/05/27 02:36:38;;;;;;;5.15;4.65;;;;;;;17.74;55.27;99404.56;4947174;28;20032;-80
2021/05/27 02:39:05;;;;;;;5.40;4.60;;;;;;;17.91;54.85;99411.59;4951594;28;20034;-80
2021/05/27 02:41:31;;;;;;;9.35;5.15;;;;;;;18.09;54.33;99408.19;4950965;28;20428;-80
2021/05/27 02:43:56;;;;;;;7.55;4.50;;;;;;;18.13;54.16;99408.25;4946532;28;20110;-80
2021/05/27 02:46:22;;;;;;;12.82;4.40;;;;;;;17.75;55.80;99406.19;4952213;28;20035;-80
2021/05/27 02:48:47;;;;;;;8.98;5.10;;;;;;;17.40;57.06;99413.00;4951285;28;20544;-79
2021/05/27 02:51:13;;;;;;;8.30;4.80;;;;;;;17.68;56.26;99415.41;4952314;28;20452;-79
2021/05/27 02:53:38;;;;;;;8.68;5.93;;;;;;;18.01;55.71;99417.78;4946425;28;20064;-79
2021/05/27 02:56:04;;;;;;;7.35;5.25;;;;;;;17.99;55.87;99421.00;4943916;28;20086;-80
2021/05/27 02:58:30;;;;;;;6.53;5.43;;;;;;;17.73;56.71;99414.22;4951903;28;20499;-80
2021/05/27 03:00:55;;;;;;;9.20;5.65;;;;;;;17.74;56.91;99410.22;4952168;28;20035;-80
2021/05/27 03:03:21;;;;;;;7.80;5.93;;;;;;;17.68;57.05;99414.56;4942389;28;20038;-79
2021/05/27 03:05:48;;;;;;;7.60;6.40;;;;;;;17.64;57.49;99408.06;4947936;28;20036;-79
2021/05/27 03:08:13;;;;;;;9.75;6.13;;;;;;;17.83;57.14;99407.88;4951791;28;20163;-79
2021/05/27 03:10:39;;;;;;;17.30;6.15;;;;;;;17.91;57.31;99420.09;4950754;28;20035;-80
2021/05/27 03:13:05;;;;;;;8.88;6.13;;;;;;;18.05;56.65;99416.66;4942821;28;20504;-80
2021/05/27 03:15:30;;;;;;;12.10;6.22;;;;;;;18.13;56.46;99413.91;4944894;28;20040;-81
2021/05/27 03:18:07;;;;;;;7.90;6.18;;;;;;;17.86;55.92;99417.63;4949271;28;20118;-81
2021/05/27 03:20:34;;;;;;;12.90;5.38;;;;;;;16.95;57.62;99410.72;4951809;28;20028;-80
2021/05/27 03:23:01;;;;;;;7.43;5.03;;;;;;;16.88;58.57;99416.25;4949892;28;20051;-80
2021/05/27 03:25:27;;;;;;;7.20;5.70;;;;;;;17.01;58.38;99416.91;4951022;28;20137;-80
2021/05/27 03:27:53;;;;;;;11.38;6.47;;;;;;;17.19;58.05;99411.50;4952006;28;20819;-80
2021/05/27 03:30:19;;;;;;;14.57;8.00;;;;;;;17.31;57.78;99412.47;4950564;28;20028;-79
2021/05/27 03:32:45;;;;;;;14.10;8.18;;;;;;;17.14;58.42;99406.19;4942016;28;20047;-79
2021/05/27 03:35:12;;;;;;;16.20;8.85;;;;;;;17.09;59.06;99415.81;4950287;28;20485;-80
2021/05/27 03:37:38;;;;;;;16.45;9.52;;;;;;;17.16;59.03;99412.28;4950091;28;20027;-78
2021/05/27 03:40:15;;;;;;;14.75;8.98;;;;;;;17.26;59.33;99408.78;4950512;28;20058;-79
2021/05/27 03:42:51;;;;;;;11.55;6.50;;;;;;;17.47;58.75;99406.63;4949622;28;20232;-80
2021/05/27 03:45:23;;;;;;;11.30;6.72;;;;;;;17.49;58.74;99416.34;4950326;28;20036;-79
2021/05/27 03:47:48;;;;;;;10.45;6.80;;;;;;;17.43;59.10;99412.25;4950634;28;20106;-79
2021/05/27 03:50:16;;;;;;;16.98;6.70;;;;;;;17.45;59.12;99418.31;4939967;28;20495;-79
2021/05/27 03:52:43;;;;;;;6.85;6.13;;;;;;;17.43;59.04;99417.91;4948405;28;20378;-80
2021/05/27 03:55:11;;;;;;;8.57;6.50;;;;;;;17.49;58.80;99410.69;4953548;28;20035;-80
2021/05/27 03:57:37;;;;;;;6.50;5.88;;;;;;;17.59;58.49;99408.38;4953675;28;20019;-79
2021/05/27 04:02:53;;;;;;;7.53;6.47;;;;;;;17.82;57.67;99409.09;4949255;28;20057;-80
2021/05/27 04:08:05;;;;;;;10.27;6.65;;;;;;;17.29;59.96;99417.69;4954898;28;20432;-78
2021/05/27 04:10:31;;;;;;;6.68;5.97;;;;;;;17.31;60.47;99418.13;4952103;28;20450;-69
2021/05/27 04:12:57;;;;;;;8.18;6.30;;;;;;;17.04;61.18;99416.13;4952967;28;20066;-72
2021/05/27 04:15:29;;;;;;;106.88;14.05;;;;;;;17.03;61.92;99422.19;4953767;28;20110;-71
2021/05/27 04:17:59;;;;;;;16.67;8.20;;;;;;;16.94;61.26;99425.22;4954085;28;20027;-71
2021/05/27 04:20:30;;;;;;;16.43;8.73;;;;;;;16.57;62.06;99418.19;4947263;28;20035;-71
2021/05/27 04:22:56;;;;;;;10.30;7.97;;;;;;;16.66;62.13;99418.75;4954641;28;20110;-72
2021/05/27 04:25:24;;;;;;;14.95;8.48;;;;;;;16.81;61.29;99431.06;4953305;28;20038;-75
2021/05/27 04:27:50;;;;;;;11.82;8.18;;;;;;;16.86;61.62;99417.84;4952165;28;20023;-74
2021/05/27 04:30:17;;;;;;;12.75;8.32;;;;;;;16.92;60.93;99425.63;4952571;28;20043;-78
2021/05/27 04:35:27;;;;;;;16.80;9.63;;;;;;;17.44;59.08;99430.81;4954374;28;20122;-75
2021/05/27 04:37:55;;;;;;;13.02;9.85;;;;;;;17.53;58.60;99431.38;4952725;28;20051;-81
2021/05/27 04:40:22;;;;;;;16.20;9.40;;;;;;;17.70;57.47;99431.16;4951955;28;20050;-74
2021/05/27 04:42:47;;;;;;;12.63;10.25;;;;;;;17.60;57.76;99436.28;4952638;28;20042;-82
2021/05/27 04:45:13;;;;;;;17.92;9.95;;;;;;;17.63;58.08;99421.38;4950936;28;20035;-81
2021/05/27 04:47:39;;;;;;;21.90;11.65;;;;;;;17.68;58.15;99434.38;4951276;28;20031;-74
2021/05/27 04:50:07;;;;;;;34.45;12.60;;;;;;;17.66;58.71;99433.94;4952609;28;20055;-76
2021/05/27 04:52:32;;;;;;;14.77;9.75;;;;;;;17.80;58.06;99436.94;4951456;28;20126;-83
2021/05/27 04:54:58;;;;;;;13.88;9.88;;;;;;;17.86;58.30;99442.25;4952082;28;20129;-82
2021/05/27 04:57:23;;;;;;;21.55;9.70;;;;;;;17.98;58.07;99436.38;4953812;28;20051;-81
2021/05/27 04:59:49;;;;;;;14.35;9.15;;;;;;;18.41;55.94;99435.22;4951736;28;20440;-74
2021/05/27 05:02:14;;;;;;;17.20;9.20;;;;;;;18.43;56.12;99435.63;4954136;28;20464;-74
2021/05/27 05:04:40;;;;;;;16.63;8.05;;;;;;;18.56;55.10;99434.13;4953488;28;20058;-83
2021/05/27 05:07:05;;;;;;;12.15;8.60;;;;;;;18.61;55.14;99444.28;4950979;28;20101;-83
2021/05/27 05:09:31;;;;;;;16.33;7.80;;;;;;;18.51;56.17;99440.16;4954143;28;20489;-80
2021/05/27 05:11:56;;;;;;;12.45;8.32;;;;;;;18.33;56.64;99443.63;4953563;28;20094;-81
2021/05/27 05:14:22;;;;;;;15.20;8.95;;;;;;;18.29;57.16;99448.44;4951021;28;20039;-81
2021/05/27 05:16:47;;;;;;;12.27;7.57;;;;;;;18.21;57.65;99444.72;4952699;28;20035;-80
2021/05/27 05:19:13;;;;;;;12.85;9.10;;;;;;;18.27;57.14;99439.53;4948512;28;20043;-80
2021/05/27 05:21:38;;;;;;;14.98;7.57;;;;;;;18.12;57.32;99452.69;4953497;28;20046;-80
2021/05/27 05:24:04;;;;;;;16.90;9.10;;;;;;;18.35;56.86;99449.72;4951764;28;20122;-73
2021/05/27 05:26:30;;;;;;;13.35;9.07;;;;;;;18.27;57.30;99441.53;4951785;28;20038;-79
2021/05/27 05:28:55;;;;;;;14.20;8.63;;;;;;;18.30;57.76;99450.06;4951191;28;20126;-73
2021/05/27 05:31:21;;;;;;;21.38;9.95;;;;;;;18.51;56.82;99448.66;4950832;28;20042;-78
2021/05/27 05:33:48;;;;;;;15.57;8.55;;;;;;;18.58;55.83;99450.75;4947317;28;20028;-72
2021/05/27 05:36:14;;;;;;;23.52;7.53;;;;;;;18.69;55.11;99450.84;4948427;28;20028;-72
2021/05/27 05:38:39;;;;;;;9.38;7.30;;;;;;;18.62;54.42;99454.41;4949460;28;20521;-73
2021/05/27 05:41:04;;;;;;;10.93;8.13;;;;;;;18.59;55.02;99461.69;4948121;28;20050;-79
2021/05/27 05:43:30;;;;;;;14.88;7.78;;;;;;;18.65;54.86;99457.28;4948423;28;20031;-79
2021/05/27 05:45:55;;;;;;;12.80;7.60;;;;;;;18.43;55.48;99466.78;4949012;28;20042;-79
2021/05/27 05:48:21;;;;;;;9.95;8.20;;;;;;;18.45;55.93;99468.03;4951294;28;20046;-79
2021/05/27 05:50:48;;;;;;;11.43;7.57;;;;;;;18.47;56.02;99465.63;4952528;28;20042;-79
2021/05/27 05:53:22;;;;;;;10.73;7.82;;;;;;;18.51;56.23;99468.47;4952619;28;20414;-79
2021/05/27 05:55:49;;;;;;;8.80;7.97;;;;;;;18.66;56.04;99467.41;4952921;28;20035;-74
2021/05/27 05:58:15;;;;;;;18.67;8.48;;;;;;;18.58;56.53;99465.72;4952892;28;20110;-79
2021/05/27 06:00:40;;;;;;;12.98;8.60;;;;;;;18.65;56.48;99460.13;4950249;28;20067;-75
2021/05/27 06:03:06;;;;;;;11.45;8.00;;;;;;;18.74;56.36;99459.78;4952077;28;20119;-80
2021/05/27 06:05:32;;;;;;;8.77;7.88;;;;;;;18.78;56.06;99449.31;4952939;28;20090;-74
2021/05/27 06:07:58;;;;;;;20.13;7.95;;;;;;;18.73;55.99;99454.53;4951065;28;20030;-70
2021/05/27 06:10:24;;;;;;;12.38;7.85;;;;;;;18.49;57.01;99459.56;4952050;28;20042;-79
2021/05/27 06:12:52;;;;;;;12.18;8.35;;;;;;;18.62;57.03;99451.59;4951230;28;20114;-79
2021/05/27 06:15:21;;;;;;;11.70;8.63;;;;;;;18.77;56.56;99458.19;4950003;28;20027;-73
2021/05/27 06:17:51;;;;;;;12.07;8.10;;;;;;;18.75;57.07;99460.63;4952133;28;20279;-73
2021/05/27 06:20:19;;;;;;;8.35;7.35;;;;;;;18.79;56.18;99464.28;4952194;28;20085;-73
2021/05/27 06:22:46;;;;;;;16.30;7.85;;;;;;;18.83;56.64;99456.66;4952467;28;20023;-80
2021/05/27 06:25:12;;;;;;;10.93;7.57;;;;;;;18.98;56.38;99462.41;4952457;28;20050;-74
2021/05/27 06:27:38;;;;;;;9.90;8.25;;;;;;;19.18;55.93;99460.16;4951596;28;20027;-80
2021/05/27 06:30:06;;;;;;;8.90;7.47;;;;;;;19.32;55.60;99457.41;4952443;28;20031;-74
2021/05/27 06:32:34;;;;;;;15.02;8.27;;;;;;;19.18;55.66;99458.13;4952089;28;20023;-80
2021/05/27 06:35:00;;;;;;;8.38;7.47;;;;;;;19.24;56.08;99460.63;4952418;28;20039;-73
2021/05/27 06:37:26;;;;;;;8.73;7.47;;;;;;;19.40;55.17;99461.09;4951503;28;20027;-80
2021/05/27 06:39:51;;;;;;;10.88;7.20;;;;;;;19.24;55.45;99452.91;4951311;28;20038;-80
2021/05/27 06:42:18;;;;;;;11.77;7.78;;;;;;;19.05;55.05;99446.31;4952452;28;20127;-73
2021/05/27 06:44:43;;;;;;;8.00;7.13;;;;;;;19.04;55.25;99449.53;4950958;28;20555;-81
2021/05/27 06:47:09;;;;;;;7.90;7.07;;;;;;;19.12;55.67;99450.38;4950297;28;20039;-80
2021/05/27 06:49:34;;;;;;;11.63;8.40;;;;;;;19.15;55.40;99456.09;4952039;28;20051;-81
2021/05/27 06:52:01;;;;;;;9.80;8.80;;;;;;;19.32;55.76;99445.28;4952415;28;20108;-73
2021/05/27 06:54:27;;;;;;;16.92;6.93;;;;;;;19.57;53.42;99441.78;4952118;28;20070;-78
2021/05/27 06:56:53;;;;;;;11.30;8.60;;;;;;;19.70;53.39;99439.38;4950506;28;20046;-78
2021/05/27 06:59:18;;;;;;;11.07;7.32;;;;;;;19.71;53.58;99435.34;4952374;28;20386;-82
2021/05/27 07:01:44;;;;;;;9.50;8.45;;;;;;;19.76;53.35;99437.81;4950717;28;20025;-70
2021/05/27 07:04:10;;;;;;;9.50;7.65;;;;;;;19.81;52.71;99439.44;4951591;28;20106;-77
2021/05/27 07:06:36;;;;;;;13.65;8.48;;;;;;;19.77;53.57;99434.56;4951877;28;20039;-80
2021/05/27 07:09:02;;;;;;;11.85;7.53;;;;;;;19.80;53.83;99449.97;4950839;28;20497;-78
2021/05/27 07:11:28;;;;;;;13.98;9.15;;;;;;;19.67;55.18;99440.19;4952046;28;20042;-79
2021/05/27 07:13:53;;;;;;;10.13;9.05;;;;;;;19.58;56.24;99454.75;4947975;28;20044;-80
2021/05/27 07:16:19;;;;;;;12.73;8.65;;;;;;;19.13;57.82;99452.84;4951494;28;20050;-81
2021/05/27 07:18:44;;;;;;;12.93;9.02;;;;;;;19.19;58.30;99447.63;4948868;28;20318;-75
2021/05/27 07:21:10;;;;;;;11.25;8.30;;;;;;;19.41;57.16;99447.75;4952135;28;20038;-79
2021/05/27 07:23:35;;;;;;;15.02;7.90;;;;;;;19.29;57.66;99449.72;4949552;28;20090;-76
2021/05/27 07:26:02;;;;;;;15.00;9.13;;;;;;;19.34;58.24;99445.69;4950552;28;20322;-77
2021/05/27 07:28:28;;;;;;;16.63;10.30;;;;;;;19.54;59.60;99445.38;4951738;28;20031;-75
2021/05/27 07:30:54;;;;;;;12.32;10.00;;;;;;;19.71;58.51;99441.84;4954773;28;20039;-74
2021/05/27 07:33:20;;;;;;;11.30;8.18;;;;;;;19.92;57.67;99431.78;4954735;28;20114;-72
2021/05/27 07:35:45;;;;;;;11.02;9.52;;;;;;;19.74;58.02;99426.84;4956921;28;20114;-75
2021/05/27 07:38:12;;;;;;;13.02;8.85;;;;;;;19.81;57.95;99436.63;4955558;28;20485;-73
2021/05/27 07:40:38;;;;;;;10.35;9.00;;;;;;;19.80;56.98;99437.81;4953696;28;20039;-74
2021/05/27 07:43:03;;;;;;;10.60;9.50;;;;;;;20.00;56.97;99439.13;4953514;28;20075;-72
2021/05/27 07:45:29;;;;;;;14.02;8.75;;;;;;;19.90;56.55;99435.03;4953334;28;20045;-72
2021/05/27 07:47:55;;;;;;;13.70;8.63;;;;;;;19.79;56.90;99431.31;4945737;28;20043;-75
2021/05/27 07:50:22;;;;;;;10.30;8.00;;;;;;;19.95;57.18;99436.69;4951527;28;20518;-75
2021/05/27 07:52:52;;;;;;;10.93;8.38;;;;;;;20.51;54.41;99430.72;4945243;28;20023;-73
2021/05/27 07:55:18;;;;;;;16.42;8.35;;;;;;;20.40;55.09;99429.91;4954369;28;20051;-75
2021/05/27 07:57:44;;;;;;;13.80;7.63;;;;;;;20.65;54.77;99420.59;4952060;28;20028;-74
2021/05/27 08:00:10;;;;;;;8.70;7.80;;;;;;;20.70;55.11;99423.03;4954563;28;20428;-73
2021/05/27 08:02:35;;;;;;;10.93;7.93;;;;;;;20.73;55.33;99425.88;4949389;28;20020;-72
2021/05/27 08:05:01;;;;;;;9.82;8.15;;;;;;;20.98;54.67;99441.31;4953197;28;20046;-75
2021/05/27 08:07:27;;;;;;;11.05;8.25;;;;;;;21.04;54.77;99429.13;4949220;28;20035;-75
2021/05/27 08:09:52;;;;;;;11.38;7.03;;;;;;;21.46;53.40;99423.75;4952429;28;20043;-75
2021/05/27 08:12:18;;;;;;;11.75;7.68;;;;;;;21.23;52.93;99410.00;4953179;28;20043;-78
2021/05/27 08:14:45;;;;;;;11.55;8.77;;;;;;;21.35;52.16;99414.44;4969382;28;20125;-78
2021/05/27 08:17:10;;;;;;;20.27;12.32;;;;;;;21.30;52.23;99400.66;4953661;28;20039;-78
2021/05/27 08:19:36;;;;;;;16.73;11.68;;;;;;;21.00;53.22;99416.16;4953242;28;20389;-79
2021/05/27 08:22:02;;;;;;;19.17;12.32;;;;;;;20.94;53.09;99418.59;4952939;28;20039;-73
2021/05/27 08:24:27;;;;;;;18.90;12.27;;;;;;;20.89;53.25;99425.50;4952101;28;20034;-71
2021/05/27 08:26:53;;;;;;;15.35;12.45;;;;;;;21.17;54.04;99409.63;4952865;28;20545;-74
2021/05/27 08:29:18;;;;;;;14.77;11.80;;;;;;;21.37;53.46;99405.50;4952671;28;20027;-75
2021/05/27 08:31:44;;;;;;;15.25;10.80;;;;;;;21.39;53.38;99403.88;4952594;28;20471;-72
2021/05/27 08:34:09;;;;;;;14.68;12.38;;;;;;;21.38;52.89;99409.97;4951636;28;20171;-76
2021/05/27 08:36:35;;;;;;;17.95;12.15;;;;;;;22.04;50.29;99393.44;4952071;28;20027;-81
2021/05/27 08:39:02;;;;;;;34.17;14.48;;;;;;;22.09;50.26;99393.03;4936718;28;20119;-70
2021/05/27 08:41:28;;;;;;;20.45;12.30;;;;;;;22.27;50.22;99387.22;4945282;28;20497;-78
2021/05/27 08:43:53;;;;;;;18.73;12.60;;;;;;;22.35;49.62;99397.31;4952048;28;20038;-75
2021/05/27 08:46:22;;;;;;;23.92;12.25;;;;;;;22.58;49.15;99393.94;4954003;28;20059;-73
2021/05/27 08:48:47;;;;;;;15.15;12.13;;;;;;;22.62;50.40;99404.50;4953685;28;20109;-73
2021/05/27 08:51:13;;;;;;;15.90;10.32;;;;;;;22.55;50.13;99409.00;4952288;28;20043;-79
2021/05/27 08:53:39;;;;;;;16.65;10.85;;;;;;;22.68;49.42;99402.78;4951375;28;20134;-79
2021/05/27 08:56:05;;;;;;;17.50;9.10;;;;;;;22.53;49.77;99404.97;4962595;28;20105;-82
2021/05/27 08:58:30;;;;;;;18.30;10.57;;;;;;;22.15;50.62;99408.44;4950915;28;20126;-78
2021/05/27 09:00:56;;;;;;;11.98;10.25;;;;;;;21.79;51.27;99408.63;4951691;28;20039;-74
2021/05/27 09:03:23;;;;;;;17.42;10.35;;;;;;;21.91;51.35;99402.47;4947527;28;20476;-72
2021/05/27 09:05:59;;;;;;;15.23;10.75;;;;;;;21.85;51.42;99402.09;4950354;28;20094;-75
2021/05/27 09:08:29;;;;;;;13.20;8.80;;;;;;;22.08;51.13;99399.94;4954794;28;20477;-74
2021/05/27 09:11:01;;;;;;;11.07;9.77;;;;;;;22.20;51.13;99392.94;4953037;28;20110;-73
2021/05/27 09:13:27;;;;;;;10.98;8.32;;;;;;;22.50;48.80;99402.94;4945659;28;20066;-70
2021/05/27 09:15:53;;;;;;;14.63;7.38;;;;;;;22.58;49.07;99396.78;4953570;28;20462;-78
2021/05/27 09:18:29;;;;;;;11.40;7.10;;;;;;;22.25;47.77;99407.56;4951569;28;20046;-81
2021/05/27 09:20:55;;;;;;;11.85;7.75;;;;;;;22.04;48.32;99396.31;4949821;28;20432;-74
2021/05/27 09:23:21;;;;;;;9.68;7.35;;;;;;;21.53;49.91;99391.63;4948984;28;20039;-82
2021/05/27 09:25:53;;;;;;;14.88;7.75;;;;;;;21.77;49.68;99396.84;4948456;28;20085;-80
2021/05/27 09:28:23;;;;;;;10.55;8.05;;;;;;;21.65;48.99;99392.38;4952840;28;20043;-75
2021/05/27 09:30:55;;;;;;;8.05;7.25;;;;;;;21.70;49.32;99384.25;4950387;28;20046;-77
2021/05/27 09:33:34;;;;;;;9.82;7.32;;;;;;;21.57;50.49;99391.63;4952773;28;20505;-78
2021/05/27 09:36:08;;;;;;;11.43;7.82;;;;;;;21.72;49.97;99384.69;4952811;28;20027;-79
2021/05/27 09:38:40;;;;;;;9.15;7.50;;;;;;;21.72;50.42;99381.00;4953031;28;20039;-78
2021/05/27 09:41:18;;;;;;;12.57;7.85;;;;;;;21.80;50.79;99376.09;4952342;28;20039;-77
2021/05/27 09:44:04;;;;;;;10.35;7.72;;;;;;;21.77;51.40;99382.63;4952571;28;20050;-76
2021/05/27 09:46:54;;;;;;;12.43;8.02;;;;;;;21.88;51.89;99381.31;4938309;28;20205;-72
2021/05/27 09:49:23;;;;;;;11.17;6.73;;;;;;;21.79;51.38;99391.56;4950896;28;20518;-75
2021/05/27 09:51:52;;;;;;;11.57;6.60;;;;;;;21.79;50.70;99383.00;4945113;28;20030;-76
2021/05/27 09:54:17;;;;;;;8.93;7.03;;;;;;;22.04;50.11;99380.03;4948444;28;20035;-79
2021/05/27 09:56:43;;;;;;;11.18;7.07;;;;;;;22.31;51.11;99388.00;4951224;28;20426;-75
2021/05/27 09:59:11;;;;;;;9.88;6.07;;;;;;;22.83;49.29;99384.34;4951482;28;20035;-77
2021/05/27 10:01:38;;;;;;;8.52;6.07;;;;;;;23.00;48.34;99381.75;4948483;28;21551;-77
2021/05/27 10:04:21;;;;;;;13.32;6.38;;;;;;;23.00;47.61;99381.75;4946774;28;20032;-78
2021/05/27 10:06:47;;;;;;;10.57;6.18;;;;;;;22.62;49.40;99381.69;4945963;28;20489;-77
2021/05/27 10:09:12;;;;;;;12.27;6.65;;;;;;;22.90;48.82;99383.47;4950117;28;20054;-82
2021/05/27 10:11:39;;;;;;;7.32;5.40;;;;;;;23.03;48.71;99380.88;4948865;28;20023;-77
2021/05/27 10:14:07;;;;;;;6.78;5.28;;;;;;;23.23;48.00;99366.03;4995108;23;20522;-72
2021/05/27 10:16:36;;;;;;;7.70;6.32;;;;;;;23.41;49.17;99372.38;5008097;28;20033;-74
2021/05/27 10:19:01;;;;;;;6.57;5.97;;;;;;;23.68;48.98;99368.78;5000368;28;20471;-72
2021/05/27 10:21:27;;;;;;;9.38;5.57;;;;;;;23.84;46.90;99373.06;5009794;28;20068;-81
2021/05/27 10:23:53;;;;;;;14.40;6.38;;;;;;;23.54;48.71;99381.19;4992363;28;20529;-78
2021/05/27 10:26:20;;;;;;;10.18;7.18;;;;;;;23.43;48.26;99374.78;4992736;28;20037;-77
2021/05/27 10:28:48;;;;;;;8.65;6.63;;;;;;;23.18;49.58;99370.16;5009955;28;20042;-76
2021/05/27 10:31:15;;;;;;;9.48;6.47;;;;;;;23.41;48.80;99360.97;5010101;28;20061;-79
2021/05/27 10:33:42;;;;;;;17.90;7.90;;;;;;;23.39;50.49;99365.47;4991971;28;20032;-81
2021/05/27 10:36:09;;;;;;;10.05;7.85;;;;;;;23.78;50.36;99366.22;4992227;28;20033;-77
2021/05/27 10:38:43;;;;;;;13.52;7.50;;;;;;;23.98;49.28;99352.06;4992255;28;20070;-76
2021/05/27 10:41:35;;;;;;;7.70;6.25;;;;;;;24.15;48.70;99352.25;5004582;28;20034;-78
2021/05/27 10:44:04;;;;;;;12.48;7.03;;;;;;;24.37;48.85;99349.84;4989036;28;20030;-80
2021/05/27 10:46:53;;;;;;;7.05;6.40;;;;;;;24.62;47.80;99331.50;4992204;28;20034;-81
2021/05/27 10:49:45;;;;;;;8.52;7.00;;;;;;;24.42;49.51;99337.13;4992156;28;20121;-81
2021/05/27 10:52:35;;;;;;;10.68;8.00;;;;;;;24.34;48.76;99334.41;4991159;28;20045;-83
2021/05/27 10:55:04;;;;;;;7.45;6.32;;;;;;;24.35;48.39;99336.00;4992894;28;20423;-83
2021/05/27 10:57:38;;;;;;;12.48;5.20;;;;;;;24.60;48.10;99322.53;4992473;28;20091;-75
2021/05/27 11:00:24;;;;;;;9.20;6.70;;;;;;;24.60;47.08;99331.09;4992179;28;20430;-74
2021/05/27 11:02:50;;;;;;;4.97;4.10;;;;;;;24.47;44.25;99328.06;5003306;28;20559;-75
2021/05/27 11:05:17;;;;;;;5.05;4.32;;;;;;;24.43;44.69;99330.97;5012527;28;20026;-74
2021/05/27 11:08:18;;;;;;;11.13;4.47;;;;;;;24.61;42.91;99329.84;4996274;28;20026;-79
2021/05/27 11:10:44;;;;;;;30.02;5.00;;;;;;;24.73;39.03;99323.50;5007744;28;20042;-77
2021/05/27 11:13:09;;;;;;;9.32;2.78;;;;;;;24.62;37.73;99331.50;5012422;28;20045;-78
2021/05/27 11:15:35;;;;;;;9.07;2.97;;;;;;;24.45;38.24;99331.34;4990783;28;20022;-76
2021/05/27 11:18:03;;;;;;;9.20;2.80;;;;;;;24.41;35.98;99327.75;4995971;28;20049;-81
2021/05/27 11:20:30;;;;;;;4.68;2.45;;;;;;;24.32;37.14;99314.03;4990005;28;20120;-77
2021/05/27 11:23:09;;;;;;;5.38;2.05;;;;;;;24.72;34.32;99306.81;4993448;28;20095;-78
2021/05/27 11:25:36;;;;;;;7.55;2.55;;;;;;;24.90;33.94;99300.78;5011109;28;20029;-74
2021/05/27 11:28:03;;;;;;;6.45;3.28;;;;;;;24.78;34.28;99303.03;4995446;28;20120;-75
2021/05/27 11:30:38;;;;;;;6.38;2.60;;;;;;;24.85;35.20;99293.50;5003873;28;20064;-75
2021/05/27 11:33:04;;;;;;;5.18;3.08;;;;;;;25.15;36.15;99285.16;4995545;28;20061;-70
2021/05/27 11:35:50;;;;;;;6.38;2.90;;;;;;;25.39;37.21;99297.31;5011806;28;20109;-76
2021/05/27 11:38:37;;;;;;;8.63;3.13;;;;;;;25.52;35.69;99294.63;4990579;28;20473;-77